Time;durP1;ratioP1;P1;durP2;ratioP2;P2;SDS_P1;SDS_P2;PMS_P1;PMS_P2;Temp;Humidity;BMP_temperature;BMP_pressure;BME280_temperature;BME280_humidity;BME280_pressure;Samples;Min_cycle;Max_cycle;Signal;HPM_P1;HPM_P2
2023/06/24 00:02:14;;;;;;;6.68;5.97;;;17.90;99.90;;;;;;5067399;28;20071;-81
2023/06/24 00:04:40;;;;;;;6.28;5.60;;;17.80;99.90;;;;;;5052070;28;20053;-80
2023/06/24 00:07:11;;;;;;;5.93;5.35;;;17.80;99.90;;;;;;5067674;28;20138;-80
2023/06/24 00:09:46;;;;;;;6.43;5.68;;;17.80;99.90;;;;;;5069721;28;20055;-80
2023/06/24 00:12:18;;;;;;;5.72;5.13;;;17.70;99.90;;;;;;5067846;28;20621;-80
2023/06/24 00:14:50;;;;;;;6.40;5.80;;;17.80;99.90;;;;;;5050021;28;20083;-80
2023/06/24 00:17:43;;;;;;;6.53;5.85;;;17.70;99.90;;;;;;5070414;28;20418;-79
2023/06/24 00:20:14;;;;;;;6.82;6.22;;;17.70;99.90;;;;;;5050649;28;20419;-80
2023/06/24 00:22:48;;;;;;;8.13;6.43;;;17.60;99.90;;;;;;5068238;28;20048;-80
2023/06/24 00:25:22;;;;;;;7.93;6.50;;;17.60;99.90;;;;;;5067716;28;20469;-80
2023/06/24 00:27:50;;;;;;;6.05;5.55;;;17.60;99.90;;;;;;5052176;28;20151;-81
2023/06/24 00:30:15;;;;;;;7.32;6.45;;;17.50;99.90;;;;;;5076762;28;20056;-80
2023/06/24 00:32:42;;;;;;;7.70;6.32;;;17.50;99.90;;;;;;5065879;28;20130;-80
2023/06/24 00:35:13;;;;;;;6.95;6.25;;;17.50;99.90;;;;;;5067059;28;20049;-80
2023/06/24 00:37:42;;;;;;;6.85;6.15;;;17.50;99.90;;;;;;5061441;28;20044;-81
2023/06/24 00:40:15;;;;;;;10.82;7.30;;;17.50;99.90;;;;;;5069023;28;20047;-80
2023/06/24 00:42:46;;;;;;;7.18;6.32;;;17.40;99.90;;;;;;5060208;28;20053;-80
2023/06/24 00:45:17;;;;;;;9.93;7.32;;;17.40;99.90;;;;;;5067495;28;20123;-80
2023/06/24 00:47:45;;;;;;;7.93;7.15;;;17.40;99.90;;;;;;5068081;28;20080;-81
2023/06/24 00:50:20;;;;;;;12.80;8.30;;;16.20;99.90;;;;;;5068846;28;20048;-80
2023/06/24 00:52:50;;;;;;;9.52;7.55;;;17.40;99.90;;;;;;5068630;28;20044;-80
2023/06/24 00:55:17;;;;;;;9.25;8.40;;;17.40;99.90;;;;;;5068377;28;20048;-80
2023/06/24 00:58:01;;;;;;;7.97;7.20;;;17.30;99.90;;;;;;5069000;28;20137;-79
2023/06/24 01:00:27;;;;;;;9.63;7.20;;;17.30;99.90;;;;;;5033853;28;20048;-80
2023/06/24 01:02:54;;;;;;;9.43;8.52;;;17.30;99.90;;;;;;5068022;28;20041;-80
2023/06/24 01:05:26;;;;;;;9.18;7.30;;;17.30;99.90;;;;;;5067074;28;20046;-80
2023/06/24 01:07:55;;;;;;;8.23;7.43;;;17.30;99.90;;;;;;5067273;28;20080;-80
2023/06/24 01:10:23;;;;;;;8.90;8.02;;;17.30;99.90;;;;;;5066300;28;20468;-79
2023/06/24 01:12:50;;;;;;;8.57;7.78;;;17.30;99.90;;;;;;5050062;28;20469;-80
2023/06/24 01:15:18;;;;;;;10.00;8.50;;;17.30;99.90;;;;;;5067151;28;20051;-79
2023/06/24 01:18:08;;;;;;;8.40;7.63;;;17.20;99.90;;;;;;5058821;28;20044;-80
2023/06/24 01:21:03;;;;;;;11.02;8.07;;;17.20;99.90;;;;;;5068727;28;20067;-80
2023/06/24 01:24:12;;;;;;;12.63;8.20;;;17.20;99.90;;;;;;5049300;28;20071;-79
2023/06/24 01:26:49;;;;;;;8.57;7.78;;;18.00;99.90;;;;;;5040421;28;20351;-80
2023/06/24 01:29:44;;;;;;;9.65;8.75;;;17.10;99.90;;;;;;5066574;28;20084;-80
2023/06/24 01:32:34;;;;;;;10.52;9.10;;;17.10;99.90;;;;;;5061730;28;20423;-80
2023/06/24 01:35:07;;;;;;;8.55;7.75;;;17.10;99.90;;;;;;5060781;28;20052;-80
2023/06/24 01:37:38;;;;;;;8.57;7.88;;;17.10;99.90;;;;;;5068165;28;20086;-80
2023/06/24 01:40:31;;;;;;;9.55;8.57;;;17.10;99.90;;;;;;5066156;28;20395;-80
2023/06/24 01:43:04;;;;;;;8.80;7.85;;;17.00;99.90;;;;;;5060719;28;20079;-80
2023/06/24 01:45:37;;;;;;;10.77;8.68;;;17.00;99.90;;;;;;5066209;28;20051;-80
2023/06/24 01:48:13;;;;;;;9.90;8.93;;;17.00;99.90;;;;;;5068013;28;20089;-80
2023/06/24 01:51:02;;;;;;;9.45;8.55;;;17.10;99.90;;;;;;5066928;28;20059;-80
2023/06/24 01:53:32;;;;;;;9.20;8.30;;;17.00;99.90;;;;;;5066219;28;20045;-80
2023/06/24 01:56:00;;;;;;;9.25;8.35;;;17.00;99.90;;;;;;5050518;28;20041;-80
2023/06/24 01:58:31;;;;;;;10.38;9.25;;;16.90;99.90;;;;;;5066746;28;20048;-80
2023/06/24 02:00:58;;;;;;;11.77;8.70;;;16.90;99.90;;;;;;5049628;28;20037;-80
2023/06/24 02:03:27;;;;;;;9.43;8.52;;;16.90;99.90;;;;;;5066369;28;20044;-80
2023/06/24 02:05:54;;;;;;;9.55;8.65;;;16.90;99.90;;;;;;5051701;28;20361;-80
2023/06/24 02:08:25;;;;;;;8.68;7.88;;;16.80;99.90;;;;;;5076107;28;20044;-80
2023/06/24 02:10:55;;;;;;;10.45;8.98;;;16.80;99.90;;;;;;5067282;28;20488;-79
2023/06/24 02:13:24;;;;;;;9.65;8.75;;;16.80;99.90;;;;;;5066756;28;20048;-81
2023/06/24 02:15:52;;;;;;;10.02;9.07;;;16.80;99.90;;;;;;5070589;28;20559;-79
2023/06/24 02:18:21;;;;;;;9.85;8.85;;;16.80;99.90;;;;;;5049387;28;20658;-80
2023/06/24 02:20:49;;;;;;;9.80;8.95;;;16.80;99.90;;;;;;5025444;28;20044;-80
2023/06/24 02:23:16;;;;;;;9.48;8.60;;;16.80;99.90;;;;;;5048933;28;20041;-79
2023/06/24 02:25:45;;;;;;;9.77;8.70;;;16.90;99.90;;;;;;5066704;28;20036;-80
2023/06/24 02:28:11;;;;;;;9.57;8.68;;;16.80;99.90;;;;;;5066284;28;20059;-79
2023/06/24 02:30:42;;;;;;;10.60;9.45;;;16.80;99.90;;;;;;5066105;28;20388;-80
2023/06/24 02:33:16;;;;;;;11.60;9.27;;;16.80;99.90;;;;;;5066289;28;20053;-80
2023/06/24 02:35:51;;;;;;;10.52;9.00;;;16.70;99.90;;;;;;5069773;28;20049;-80
2023/06/24 02:38:19;;;;;;;10.02;8.82;;;16.70;99.90;;;;;;5071142;28;20272;-80
2023/06/24 02:40:45;;;;;;;10.55;9.55;;;16.70;99.90;;;;;;5069840;28;20464;-80
2023/06/24 02:43:11;;;;;;;9.60;8.60;;;16.70;99.90;;;;;;5052151;28;20051;-80
2023/06/24 02:45:38;;;;;;;9.75;8.25;;;17.60;99.90;;;;;;5069921;28;20049;-80
2023/06/24 02:48:06;;;;;;;9.23;8.35;;;16.70;99.90;;;;;;5053412;28;20040;-80
2023/06/24 02:50:33;;;;;;;10.23;8.13;;;16.70;99.90;;;;;;5069324;28;20086;-80
2023/06/24 02:53:04;;;;;;;9.27;8.38;;;16.70;99.90;;;;;;5069706;28;20033;-79
2023/06/24 02:55:32;;;;;;;9.88;8.90;;;16.70;99.90;;;;;;5068459;28;20469;-79
2023/06/24 02:57:58;;;;;;;10.95;9.20;;;16.60;99.90;;;;;;5070429;28;20104;-80
2023/06/24 03:00:25;;;;;;;10.38;9.32;;;16.70;99.90;;;;;;5052417;28;20033;-80
2023/06/24 03:02:51;;;;;;;11.27;9.07;;;17.80;99.90;;;;;;5070293;28;20059;-80
2023/06/24 03:05:19;;;;;;;10.00;9.00;;;16.60;99.90;;;;;;5069148;28;20028;-80
2023/06/24 03:07:45;;;;;;;10.20;9.02;;;16.50;99.90;;;;;;5052692;28;20067;-80
2023/06/24 03:10:11;;;;;;;9.52;8.55;;;16.50;99.90;;;;;;5068780;28;20407;-80
2023/06/24 03:12:41;;;;;;;11.05;9.00;;;16.50;99.90;;;;;;5070852;28;20118;-80
2023/06/24 03:15:09;;;;;;;9.43;8.27;;;17.70;99.90;;;;;;5036377;28;20039;-82
2023/06/24 03:17:37;;;;;;;10.50;8.82;;;16.50;99.90;;;;;;5069351;28;20037;-80
2023/06/24 03:20:08;;;;;;;12.07;9.20;;;16.60;99.90;;;;;;5052144;28;20454;-80
2023/06/24 03:22:33;;;;;;;10.75;9.65;;;16.60;99.90;;;;;;5069068;28;20044;-80
2023/06/24 03:25:00;;;;;;;13.10;9.52;;;16.50;99.90;;;;;;5051682;28;20442;-80
2023/06/24 03:27:28;;;;;;;10.73;8.93;;;16.50;99.90;;;;;;5069453;28;20039;-80
2023/06/24 03:29:56;;;;;;;10.18;9.07;;;16.50;99.90;;;;;;5069235;28;20052;-80
2023/06/24 03:32:22;;;;;;;13.52;9.40;;;16.60;99.90;;;;;;5069393;28;20053;-80
2023/06/24 03:34:51;;;;;;;12.25;8.88;;;16.40;99.90;;;;;;5070628;28;20075;-79
2023/06/24 03:37:19;;;;;;;12.80;8.32;;;16.50;99.90;;;;;;5052149;28;20705;-80
2023/06/24 03:39:45;;;;;;;9.45;8.45;;;16.40;99.90;;;;;;5069285;28;20135;-79
2023/06/24 03:42:11;;;;;;;10.40;8.95;;;16.40;99.90;;;;;;5068940;28;20104;-80
2023/06/24 03:44:37;;;;;;;9.32;8.20;;;16.40;99.90;;;;;;5070449;28;20040;-80
2023/06/24 03:47:04;;;;;;;10.18;8.25;;;16.40;99.90;;;;;;5059871;28;20037;-80
2023/06/24 03:49:31;;;;;;;14.20;8.88;;;16.40;99.90;;;;;;5052537;28;20415;-80
2023/06/24 03:51:57;;;;;;;8.93;8.05;;;16.40;99.90;;;;;;5051575;28;20047;-80
2023/06/24 03:54:25;;;;;;;10.27;8.63;;;16.40;99.90;;;;;;5068862;28;20119;-80
2023/06/24 03:56:55;;;;;;;8.88;7.97;;;17.40;99.90;;;;;;5044606;28;20132;-80
2023/06/24 03:59:22;;;;;;;10.68;8.45;;;16.40;99.90;;;;;;5034034;28;20280;-80
2023/06/24 04:01:50;;;;;;;9.50;8.27;;;16.40;99.90;;;;;;5068691;28;20041;-80
2023/06/24 04:04:19;;;;;;;9.45;8.45;;;16.30;99.90;;;;;;5069459;28;20048;-80
2023/06/24 04:06:51;;;;;;;9.55;8.55;;;16.50;99.90;;;;;;5068351;28;20063;-80
2023/06/24 04:09:17;;;;;;;9.68;8.68;;;16.30;99.90;;;;;;5068891;28;20049;-80
2023/06/24 04:11:43;;;;;;;11.30;8.38;;;16.30;99.90;;;;;;5069422;28;20068;-80
2023/06/24 04:14:14;;;;;;;11.98;8.30;;;16.30;99.90;;;;;;5050890;28;20395;-80
2023/06/24 04:16:40;;;;;;;10.05;8.50;;;16.30;99.90;;;;;;5068572;28;20036;-81
2023/06/24 04:19:12;;;;;;;10.40;8.27;;;16.30;99.90;;;;;;5052408;28;20070;-80
2023/06/24 04:21:40;;;;;;;13.40;8.60;;;16.30;99.90;;;;;;5067099;28;20043;-80
2023/06/24 04:24:08;;;;;;;10.73;8.60;;;16.30;99.90;;;;;;5069723;28;20036;-80
2023/06/24 04:26:35;;;;;;;9.13;8.15;;;16.30;99.90;;;;;;5034354;28;20090;-80
2023/06/24 04:29:01;;;;;;;10.60;9.00;;;16.30;99.90;;;;;;5069117;28;20373;-80
2023/06/24 04:31:27;;;;;;;10.23;8.80;;;16.60;99.90;;;;;;5067576;28;20109;-80
2023/06/24 04:33:57;;;;;;;9.95;8.85;;;16.30;99.90;;;;;;5067204;28;20903;-80
2023/06/24 04:36:25;;;;;;;11.73;8.55;;;16.80;99.90;;;;;;5068407;28;20519;-80
2023/06/24 04:38:53;;;;;;;9.73;8.82;;;16.40;99.90;;;;;;5068144;28;20040;-80
2023/06/24 04:41:19;;;;;;;13.93;9.80;;;16.40;99.90;;;;;;5066395;28;20048;-80
2023/06/24 04:43:45;;;;;;;10.10;9.13;;;16.40;99.90;;;;;;5051345;28;20453;-80
2023/06/24 04:46:11;;;;;;;12.90;9.43;;;16.40;99.90;;;;;;5069106;28;20112;-79
2023/06/24 04:48:38;;;;;;;10.68;9.25;;;16.40;99.90;;;;;;5050412;28;20050;-80
2023/06/24 04:51:05;;;;;;;11.02;9.93;;;16.50;99.90;;;;;;5068974;28;20043;-80
2023/06/24 04:53:31;;;;;;;14.02;10.80;;;16.50;99.90;;;;;;5051187;28;20128;-80
2023/06/24 04:55:58;;;;;;;13.23;10.73;;;16.50;99.90;;;;;;5066659;28;20101;-80
2023/06/24 04:58:27;;;;;;;12.23;10.85;;;16.60;99.90;;;;;;5050420;28;20051;-80
2023/06/24 05:00:56;;;;;;;13.70;11.13;;;16.50;99.90;;;;;;5068825;28;20101;-80
2023/06/24 05:03:32;;;;;;;14.20;10.98;;;16.60;99.90;;;;;;5067791;28;20051;-80
2023/06/24 05:06:01;;;;;;;12.82;11.45;;;16.60;99.90;;;;;;5059405;28;20097;-80
2023/06/24 05:08:28;;;;;;;11.68;10.48;;;16.60;99.90;;;;;;5034219;28;20041;-80
2023/06/24 05:10:54;;;;;;;11.60;10.48;;;16.60;99.90;;;;;;5070839;28;20060;-80
2023/06/24 05:13:20;;;;;;;13.57;11.00;;;16.70;99.90;;;;;;5050324;28;20036;-80
2023/06/24 05:15:46;;;;;;;18.15;11.68;;;16.70;99.90;;;;;;5067761;28;20080;-81
2023/06/24 05:18:12;;;;;;;12.90;11.60;;;16.80;99.90;;;;;;5066852;28;20495;-79
2023/06/24 05:20:47;;;;;;;13.60;11.52;;;16.80;99.90;;;;;;5070390;28;20080;-81
2023/06/24 05:23:13;;;;;;;12.98;11.60;;;16.90;99.90;;;;;;5069988;28;20448;-81
2023/06/24 05:25:40;;;;;;;13.23;10.80;;;16.90;99.90;;;;;;5076920;28;20480;-81
2023/06/24 05:28:05;;;;;;;16.77;12.07;;;17.00;99.90;;;;;;5068943;28;20037;-82
2023/06/24 05:30:32;;;;;;;20.30;11.32;;;17.00;99.90;;;;;;5067627;28;20543;-81
2023/06/24 05:32:58;;;;;;;15.27;11.20;;;17.10;99.90;;;;;;5068363;28;20454;-80
2023/06/24 05:35:23;;;;;;;13.55;12.20;;;17.10;99.90;;;;;;5068817;28;20556;-79
2023/06/24 05:37:50;;;;;;;16.35;11.27;;;17.20;99.90;;;;;;5067093;28;20040;-80
2023/06/24 05:40:16;;;;;;;13.80;11.02;;;17.20;99.90;;;;;;5066304;28;20044;-80
2023/06/24 05:42:42;;;;;;;14.43;10.70;;;17.20;99.90;;;;;;5068576;28;20205;-81
2023/06/24 05:45:08;;;;;;;14.63;11.43;;;17.30;99.90;;;;;;5050068;28;20051;-80
2023/06/24 05:47:35;;;;;;;13.55;10.68;;;17.40;99.90;;;;;;5067091;28;20053;-81
2023/06/24 05:50:01;;;;;;;13.32;11.93;;;17.40;99.90;;;;;;5068298;28;20046;-80
2023/06/24 05:52:28;;;;;;;14.68;12.23;;;17.40;99.90;;;;;;5065954;28;20484;-80
2023/06/24 05:55:02;;;;;;;15.88;11.93;;;17.50;99.90;;;;;;5067142;28;20048;-80
2023/06/24 05:57:27;;;;;;;14.00;10.55;;;17.60;99.90;;;;;;5050304;28;20048;-80
2023/06/24 05:59:53;;;;;;;13.18;10.63;;;17.60;99.90;;;;;;5033305;28;20503;-80
2023/06/24 06:02:19;;;;;;;16.08;9.70;;;17.70;99.90;;;;;;5068075;28;20037;-80
2023/06/24 06:04:45;;;;;;;16.40;10.43;;;17.70;99.90;;;;;;5068290;28;20114;-80
2023/06/24 06:07:10;;;;;;;10.90;9.30;;;17.90;99.90;;;;;;5065920;28;20036;-80
2023/06/24 06:09:39;;;;;;;17.23;10.32;;;17.90;99.90;;;;;;5069480;28;20060;-80
2023/06/24 06:12:05;;;;;;;10.43;9.45;;;17.90;99.90;;;;;;5053228;28;20048;-80
2023/06/24 06:14:32;;;;;;;10.93;9.23;;;18.00;99.90;;;;;;5053730;28;20045;-80
2023/06/24 06:16:58;;;;;;;13.40;10.00;;;18.10;99.90;;;;;;5071703;28;20476;-80
2023/06/24 06:19:24;;;;;;;11.23;9.45;;;18.10;99.90;;;;;;5070919;28;20051;-81
2023/06/24 06:21:52;;;;;;;10.93;9.65;;;18.20;99.90;;;;;;5071817;28;20041;-80
2023/06/24 06:24:18;;;;;;;15.30;10.63;;;18.30;99.90;;;;;;5070542;28;20376;-81
2023/06/24 06:26:44;;;;;;;12.65;9.75;;;18.40;99.90;;;;;;5071943;28;20085;-81
2023/06/24 06:29:14;;;;;;;11.20;9.65;;;18.40;99.90;;;;;;5070847;28;20661;-81
2023/06/24 06:31:40;;;;;;;12.82;11.45;;;18.50;99.90;;;;;;5070687;28;20063;-81
2023/06/24 06:34:08;;;;;;;14.25;12.77;;;18.60;99.90;;;;;;5070440;28;20048;-80
2023/06/24 06:36:35;;;;;;;17.52;13.63;;;18.70;99.90;;;;;;5071670;28;20076;-81
2023/06/24 06:39:00;;;;;;;13.20;11.82;;;18.80;99.90;;;;;;5071218;28;20491;-81
2023/06/24 06:41:26;;;;;;;12.23;9.55;;;18.90;99.90;;;;;;5073006;28;20039;-82
2023/06/24 06:43:52;;;;;;;12.98;10.73;;;19.00;99.90;;;;;;5071449;28;20060;-82
2023/06/24 06:46:18;;;;;;;13.02;9.52;;;19.10;99.90;;;;;;5070153;28;20059;-82
2023/06/24 06:48:47;;;;;;;11.90;10.40;;;19.30;99.90;;;;;;5071631;28;20055;-81
2023/06/24 06:51:13;;;;;;;11.25;9.50;;;19.40;99.90;;;;;;5070832;28;20083;-81
2023/06/24 06:53:39;;;;;;;11.75;9.45;;;19.60;99.90;;;;;;5071308;28;20072;-81
2023/06/24 06:56:04;;;;;;;10.25;9.25;;;19.60;99.90;;;;;;5051874;28;20051;-82
2023/06/24 06:58:30;;;;;;;14.55;9.40;;;19.70;99.90;;;;;;5053695;28;20040;-81
2023/06/24 07:01:01;;;;;;;10.20;9.18;;;19.80;99.90;;;;;;5078835;28;20049;-80
2023/06/24 07:03:28;;;;;;;9.65;8.68;;;19.80;99.90;;;;;;5066384;28;20036;-84
2023/06/24 07:06:05;;;;;;;11.43;8.55;;;19.90;99.90;;;;;;5086500;28;20053;-79
2023/06/24 07:08:31;;;;;;;11.90;9.07;;;20.00;99.90;;;;;;5068912;28;20036;-79
2023/06/24 07:10:58;;;;;;;10.85;7.28;;;20.10;99.90;;;;;;5052635;28;20055;-80
2023/06/24 07:13:24;;;;;;;8.80;7.90;;;20.10;99.90;;;;;;5052971;28;20329;-80
2023/06/24 07:15:49;;;;;;;9.23;8.10;;;20.20;99.90;;;;;;5068956;28;20058;-80
2023/06/24 07:18:15;;;;;;;10.27;7.80;;;20.20;99.90;;;;;;5071622;28;20043;-80
2023/06/24 07:20:41;;;;;;;10.60;8.57;;;20.20;99.90;;;;;;5035777;28;20127;-80
2023/06/24 07:23:06;;;;;;;12.10;7.97;;;20.20;99.90;;;;;;5069359;28;20049;-80
2023/06/24 07:25:32;;;;;;;8.38;7.57;;;20.40;99.90;;;;;;5069504;28;20395;-80
2023/06/24 07:28:23;;;;;;;12.60;6.97;;;20.50;99.90;;;;;;5075778;28;20044;-79
2023/06/24 07:30:54;;;;;;;10.45;7.53;;;20.50;99.90;;;;;;5091695;28;20049;-80
2023/06/24 07:33:31;;;;;;;12.02;7.25;;;20.60;99.90;;;;;;5055624;28;20052;-80
2023/06/24 07:36:24;;;;;;;8.02;7.22;;;20.70;99.90;;;;;;5050441;28;20105;-77
2023/06/24 07:38:58;;;;;;;10.52;8.93;;;20.70;99.90;;;;;;5057732;28;20040;-79
2023/06/24 07:41:24;;;;;;;9.65;7.13;;;20.80;99.90;;;;;;5068860;28;20131;-81
2023/06/24 07:43:50;;;;;;;7.72;5.97;;;20.90;99.90;;;;;;5065325;28;20206;-79
2023/06/24 07:46:16;;;;;;;6.50;5.28;;;21.00;99.90;;;;;;5052269;28;20483;-77
2023/06/24 07:48:41;;;;;;;6.25;5.30;;;21.10;99.90;;;;;;5069601;28;20605;-77
2023/06/24 07:51:08;;;;;;;7.38;6.22;;;21.20;99.90;;;;;;5067936;28;20032;-77
2023/06/24 07:53:35;;;;;;;6.80;4.82;;;21.20;99.90;;;;;;5068558;28;20065;-77
2023/06/24 07:56:00;;;;;;;6.55;5.18;;;21.20;99.90;;;;;;5069201;28;20125;-78
2023/06/24 07:58:26;;;;;;;8.18;5.22;;;21.30;99.90;;;;;;5051549;28;20092;-82
2023/06/24 08:00:52;;;;;;;6.78;6.15;;;21.30;99.90;;;;;;5069847;28;20045;-82
2023/06/24 08:03:17;;;;;;;7.15;5.95;;;21.30;99.90;;;;;;5070596;28;20044;-77
2023/06/24 08:05:43;;;;;;;7.38;6.05;;;21.40;99.90;;;;;;5068068;28;20056;-77
2023/06/24 08:08:09;;;;;;;6.80;5.18;;;21.50;99.90;;;;;;5068528;28;20035;-79
2023/06/24 08:10:35;;;;;;;10.52;5.22;;;21.50;99.90;;;;;;5069883;28;20048;-77
2023/06/24 08:13:01;;;;;;;8.25;5.15;;;21.60;99.90;;;;;;5070855;28;20041;-80
2023/06/24 08:15:28;;;;;;;8.98;5.00;;;21.60;99.90;;;;;;5069985;28;20086;-81
2023/06/24 08:17:59;;;;;;;8.93;5.68;;;21.70;99.90;;;;;;5070035;28;20048;-78
2023/06/24 08:20:26;;;;;;;5.88;5.28;;;21.70;99.90;;;;;;5068315;28;20051;-78
2023/06/24 08:22:51;;;;;;;7.10;4.97;;;21.70;99.90;;;;;;5069181;28;20044;-76
2023/06/24 08:25:17;;;;;;;7.68;5.50;;;21.80;99.90;;;;;;5069548;28;20144;-79
2023/06/24 08:27:46;;;;;;;7.45;5.95;;;21.90;99.90;;;;;;5051185;28;20052;-79
2023/06/24 08:30:14;;;;;;;10.18;7.15;;;21.90;99.90;;;;;;5068305;28;20052;-76
2023/06/24 08:32:40;;;;;;;7.57;5.07;;;22.10;99.90;;;;;;5069348;28;20045;-78
2023/06/24 08:35:07;;;;;;;7.30;6.63;;;22.10;99.90;;;;;;5051326;28;20052;-79
2023/06/24 08:37:33;;;;;;;9.50;6.35;;;22.10;99.90;;;;;;5076793;28;20116;-77
2023/06/24 08:40:00;;;;;;;10.85;5.53;;;22.10;99.90;;;;;;5072057;28;20050;-76
2023/06/24 08:42:35;;;;;;;7.47;6.70;;;22.10;99.90;;;;;;5035109;28;20084;-78
2023/06/24 08:45:01;;;;;;;9.80;6.60;;;22.20;99.90;;;;;;5067289;28;20526;-79
2023/06/24 08:47:31;;;;;;;11.32;7.05;;;22.30;99.90;;;;;;4716085;28;9999870;-79
2023/06/24 08:50:16;;;;;;;8.25;6.68;;;22.30;99.90;;;;;;5065926;28;20101;-79
2023/06/24 08:52:50;;;;;;;6.85;5.75;;;22.40;99.90;;;;;;5064700;28;20109;-79
2023/06/24 08:55:17;;;;;;;9.02;6.25;;;22.40;99.90;;;;;;5065998;28;20045;-79
2023/06/24 08:57:42;;;;;;;9.75;6.15;;;22.40;99.90;;;;;;5065945;28;20063;-79
2023/06/24 09:00:12;;;;;;;8.85;5.85;;;22.50;99.90;;;;;;5049291;28;20118;-79
2023/06/24 09:02:38;;;;;;;7.88;5.70;;;22.50;99.90;;;;;;5064724;28;20044;-78
2023/06/24 09:05:07;;;;;;;9.82;5.03;;;22.60;99.90;;;;;;5063586;28;20127;-80
2023/06/24 09:07:33;;;;;;;8.43;5.95;;;22.60;99.90;;;;;;5066539;28;20044;-79
2023/06/24 09:10:02;;;;;;;6.75;5.70;;;22.70;99.90;;;;;;5064792;28;20472;-79
2023/06/24 09:12:30;;;;;;;7.15;5.97;;;22.70;99.90;;;;;;5059483;28;20036;-78
2023/06/24 09:14:56;;;;;;;10.40;6.35;;;22.70;99.90;;;;;;5065218;28;20110;-79
2023/06/24 09:17:22;;;;;;;8.63;5.93;;;22.70;99.90;;;;;;5065176;28;20549;-78
2023/06/24 09:19:48;;;;;;;6.15;5.60;;;22.80;99.90;;;;;;5048329;28;20083;-79
2023/06/24 09:22:18;;;;;;;8.20;6.10;;;22.90;99.90;;;;;;5064864;28;20068;-79
2023/06/24 09:24:48;;;;;;;8.75;7.10;;;23.00;99.90;;;;;;5065304;28;20048;-80
2023/06/24 09:27:15;;;;;;;7.85;5.85;;;23.10;99.90;;;;;;5064467;28;20537;-80
2023/06/24 09:29:42;;;;;;;9.43;5.50;;;23.20;99.90;;;;;;5065829;28;20487;-82
2023/06/24 09:32:08;;;;;;;6.93;6.03;;;23.20;99.90;;;;;;5064676;28;20067;-78
2023/06/24 09:34:34;;;;;;;6.13;5.10;;;23.30;99.90;;;;;;5047611;28;20761;-78
2023/06/24 09:37:00;;;;;;;6.78;5.57;;;23.40;99.90;;;;;;5063321;28;20048;-81
2023/06/24 09:39:31;;;;;;;6.38;5.47;;;23.50;99.90;;;;;;5047720;28;20047;-76
2023/06/24 09:42:01;;;;;;;6.82;5.72;;;23.50;99.90;;;;;;5064891;28;20055;-76
2023/06/24 09:44:28;;;;;;;7.32;5.40;;;23.60;99.90;;;;;;5063287;28;20036;-76
2023/06/24 09:46:55;;;;;;;5.93;5.32;;;23.70;99.90;;;;;;5064363;28;20066;-75
2023/06/24 09:49:21;;;;;;;9.50;5.47;;;23.80;99.90;;;;;;5065195;28;20048;-76
2023/06/24 09:51:58;;;;;;;8.68;5.85;;;23.80;99.90;;;;;;5063987;28;20051;-75
2023/06/24 09:54:27;;;;;;;7.75;5.38;;;23.80;99.90;;;;;;5066369;28;20135;-76
2023/06/24 09:56:56;;;;;;;7.10;5.22;;;23.80;99.90;;;;;;5065608;28;20060;-76
2023/06/24 09:59:24;;;;;;;11.02;5.82;;;24.00;99.90;;;;;;5064729;28;20598;-76
2023/06/24 10:01:53;;;;;;;6.63;5.53;;;24.10;99.90;;;;;;5064557;28;20041;-75
2023/06/24 10:04:20;;;;;;;5.82;5.25;;;24.10;99.90;;;;;;5063571;28;20528;-76
2023/06/24 10:06:48;;;;;;;8.82;5.78;;;24.10;99.90;;;;;;5065514;28;20044;-76
2023/06/24 10:09:16;;;;;;;5.40;4.90;;;24.20;99.90;;;;;;5065753;28;20492;-76
2023/06/24 10:11:44;;;;;;;7.25;4.18;;;24.30;99.90;;;;;;5064558;28;20446;-76
2023/06/24 10:14:10;;;;;;;5.70;3.60;;;24.30;99.90;;;;;;5073325;28;20056;-76
2023/06/24 10:16:36;;;;;;;6.05;3.63;;;24.40;99.90;;;;;;5039868;28;20428;-76
2023/06/24 10:19:04;;;;;;;4.85;3.58;;;24.30;99.90;;;;;;5047340;28;20496;-76
2023/06/24 10:21:57;;;;;;;4.63;4.18;;;24.40;99.90;;;;;;5066469;28;20033;-76
2023/06/24 10:24:34;;;;;;;7.10;4.50;;;24.40;99.90;;;;;;5048713;28;20062;-76
2023/06/24 10:27:04;;;;;;;16.00;5.68;;;24.30;99.90;;;;;;5065249;28;20056;-76
2023/06/24 10:29:37;;;;;;;43.85;10.60;;;24.50;99.90;;;;;;5066150;28;20051;-76
2023/06/24 10:32:12;;;;;;;10.03;4.83;;;24.60;99.90;;;;;;5066873;28;20049;-77
2023/06/24 10:34:37;;;;;;;17.13;6.50;;;24.60;99.90;;;;;;5062248;28;20052;-79
2023/06/24 10:37:12;;;;;;;6.90;3.75;;;24.70;99.90;;;;;;5065541;28;20381;-79
2023/06/24 10:39:57;;;;;;;5.90;3.85;;;24.60;99.90;;;;;;5062456;28;20076;-82
2023/06/24 10:42:42;;;;;;;4.13;3.75;;;24.70;99.90;;;;;;5055158;28;20040;-79
2023/06/24 10:45:12;;;;;;;4.90;4.35;;;24.70;99.70;;;;;;5066086;28;20449;-78
2023/06/24 10:47:46;;;;;;;5.22;4.60;;;24.80;99.90;;;;;;5065124;28;20707;-78
2023/06/24 10:50:14;;;;;;;6.47;4.28;;;24.90;99.90;;;;;;5048593;28;20044;-78
2023/06/24 10:52:42;;;;;;;6.18;4.10;;;24.90;99.70;;;;;;5066527;28;20052;-80
2023/06/24 10:55:08;;;;;;;5.55;4.28;;;24.90;99.80;;;;;;5048535;28;20052;-78
2023/06/24 10:57:34;;;;;;;4.63;4.13;;;24.90;99.50;;;;;;5053427;28;20547;-80
2023/06/24 11:00:01;;;;;;;8.40;4.05;;;24.90;99.90;;;;;;5053315;28;20048;-77
2023/06/24 11:02:27;;;;;;;6.50;4.43;;;25.00;99.90;;;;;;5070196;28;20032;-79
2023/06/24 11:04:59;;;;;;;4.30;3.90;;;25.00;99.80;;;;;;5069984;28;20565;-79
2023/06/24 11:07:27;;;;;;;7.38;5.00;;;25.00;99.90;;;;;;5053939;28;20040;-78
2023/06/24 11:09:55;;;;;;;5.35;4.20;;;25.10;99.70;;;;;;5069078;28;20044;-81
2023/06/24 11:12:32;;;;;;;5.65;4.38;;;25.10;99.90;;;;;;5070073;28;20037;-82
2023/06/24 11:15:00;;;;;;;5.07;4.05;;;25.30;99.90;;;;;;5069215;28;20063;-81
2023/06/24 11:17:26;;;;;;;5.18;3.75;;;25.40;99.90;;;;;;5069803;28;20032;-81
2023/06/24 11:19:53;;;;;;;5.03;4.18;;;25.50;99.90;;;;;;5070220;28;20084;-80
2023/06/24 11:22:19;;;;;;;4.75;3.45;;;25.60;99.70;;;;;;5052085;28;20036;-81
2023/06/24 11:24:45;;;;;;;3.85;3.55;;;25.70;98.90;;;;;;5045466;28;20064;-80
2023/06/24 11:27:10;;;;;;;6.07;3.72;;;25.80;98.70;;;;;;5051948;28;20075;-78
2023/06/24 11:29:38;;;;;;;5.50;4.05;;;25.90;99.40;;;;;;5072163;28;20055;-81
2023/06/24 11:32:07;;;;;;;5.05;4.13;;;26.00;99.10;;;;;;5051427;28;20060;-78
2023/06/24 11:34:33;;;;;;;5.10;4.10;;;26.10;98.90;;;;;;5050293;28;20425;-81
2023/06/24 11:37:09;;;;;;;3.95;3.38;;;26.20;98.20;;;;;;4352896;28;10000717;-79
2023/06/24 11:39:35;;;;;;;6.00;3.85;;;26.10;98.50;;;;;;5067455;28;20040;-80
2023/06/24 11:42:01;;;;;;;3.30;3.00;;;26.00;98.20;;;;;;5067178;28;20048;-80
2023/06/24 11:44:26;;;;;;;7.35;3.53;;;25.90;98.30;;;;;;5051112;28;20045;-78
2023/06/24 11:46:52;;;;;;;4.82;4.38;;;25.90;97.90;;;;;;5052274;28;20048;-78
2023/06/24 11:49:19;;;;;;;3.70;3.40;;;25.90;98.00;;;;;;5070892;28;20552;-79
2023/06/24 11:51:50;;;;;;;5.85;3.53;;;25.90;98.10;;;;;;5050796;28;20036;-80
2023/06/24 11:54:19;;;;;;;4.80;3.90;;;25.90;97.80;;;;;;5051085;28;20048;-80
2023/06/24 11:56:51;;;;;;;3.70;3.40;;;25.90;97.30;;;;;;5050249;28;20032;-78
2023/06/24 11:59:19;;;;;;;4.07;3.67;;;26.00;97.50;;;;;;5048924;28;20040;-79
2023/06/24 12:01:52;;;;;;;6.68;2.90;;;26.10;97.50;;;;;;5048945;28;20055;-80
2023/06/24 12:04:18;;;;;;;6.35;3.00;;;26.30;97.20;;;;;;5065905;28;20044;-79
2023/06/24 12:06:44;;;;;;;7.40;2.92;;;26.30;97.00;;;;;;5054263;28;20101;-80
2023/06/24 12:09:10;;;;;;;4.70;3.42;;;26.30;96.60;;;;;;5067297;28;20047;-80
2023/06/24 12:11:36;;;;;;;4.82;2.97;;;26.50;96.80;;;;;;5064168;28;20048;-82
2023/06/24 12:14:02;;;;;;;7.10;3.38;;;26.60;96.40;;;;;;5065954;28;20036;-81
2023/06/24 12:16:29;;;;;;;6.47;3.83;;;26.70;96.60;;;;;;5047644;28;20078;-85
2023/06/24 12:18:55;;;;;;;4.32;3.45;;;26.90;96.30;;;;;;5067617;28;20127;-79
2023/06/24 12:21:21;;;;;;;3.58;3.10;;;26.90;95.70;;;;;;5068346;28;20480;-81
2023/06/24 12:23:46;;;;;;;3.35;3.05;;;27.00;95.70;;;;;;5051699;28;20185;-83
2023/06/24 12:26:13;;;;;;;3.85;3.30;;;27.00;95.60;;;;;;5068101;28;20473;-84
2023/06/24 12:28:39;;;;;;;3.63;3.13;;;27.10;95.30;;;;;;5067517;28;20492;-84
2023/06/24 12:31:04;;;;;;;3.15;2.90;;;27.00;95.40;;;;;;5067999;28;20040;-80
2023/06/24 12:33:30;;;;;;;3.03;2.83;;;26.90;95.20;;;;;;5050019;28;20045;-81
2023/06/24 12:35:56;;;;;;;5.80;3.83;;;26.80;95.50;;;;;;5062448;28;20081;-83
2023/06/24 12:38:22;;;;;;;6.03;3.80;;;26.70;96.00;;;;;;5066817;28;20078;-81
2023/06/24 12:40:48;;;;;;;5.65;3.55;;;26.60;95.90;;;;;;5067396;28;20048;-81
2023/06/24 12:43:14;;;;;;;6.50;3.75;;;26.60;96.30;;;;;;5068622;28;20045;-81
2023/06/24 12:45:43;;;;;;;4.25;3.83;;;26.70;96.90;;;;;;5068056;28;20051;-81
2023/06/24 12:48:09;;;;;;;4.78;3.20;;;26.80;96.50;;;;;;5068393;28;20044;-81
2023/06/24 12:50:35;;;;;;;5.30;3.50;;;26.80;96.60;;;;;;5067225;28;20040;-80